Flight Track Log - Related Links

Times and Time Zones

All times are in EDT time to prevent confusion due to time zone crossing. See the AAY806 flight status page for this flight to view local times or setup timezone preferences in your user account.

Time Position Orientation Groundspeed Altitude Reporting Facility
EDT Latitude Longitude Course Direction KTS MPH feet Rate Location/Type
Wed 03:57:33 PM 27.9333 -82.7000 30° Northeast 177 204 1,000  Level Tampa TRACON
Wed 03:58:33 PM 27.9833 -82.6667 30° Northeast 236 272 2,600 1,950 Climbing Tampa TRACON
Wed 03:59:33 PM 28.0500 -82.6667 360° North 270 311 4,900 2,492 Climbing Tampa TRACON
Wed 04:01:36 PM 28.2019 -82.7231 342° North 294 338 10,200 2,230 Climbing Jacksonville Center
Wed 04:02:36 PM 28.2897 -82.7489 345° North 300 345 11,700 1,450 Climbing Jacksonville Center
Wed 04:03:36 PM 28.3939 -82.7769 347° North 340 391 13,100 1,750 Climbing Jacksonville Center
Wed 04:04:36 PM 28.5025 -82.8100 345° North 378 435 15,200 2,100 Climbing Jacksonville Center
Wed 04:05:36 PM 28.6175 -82.8431 346° North 405 466 17,300 1,850 Climbing Jacksonville Center
Wed 04:06:36 PM 28.7217 -82.8714 347° North 419 482 18,900 1,700 Climbing Jacksonville Center
Wed 04:07:36 PM 28.8386 -82.9019 347° North 419 482 20,700 1,650 Climbing Jacksonville Center
Wed 04:08:36 PM 28.9597 -82.9378 345° North 430 495 22,200 1,500 Climbing Jacksonville Center
Wed 04:09:36 PM 29.0828 -82.9708 347° North 441 507 23,700 1,450 Climbing Jacksonville Center
Wed 04:10:36 PM 29.1828 -83.0567 323° Northwest 441 507 25,100 1,450 Climbing Jacksonville Center
Wed 04:11:36 PM 29.2767 -83.1522 318° Northwest 441 507 26,600 1,550 Climbing Jacksonville Center
Wed 04:12:36 PM 29.3661 -83.2547 315° West 447 514 28,200 1,350 Climbing Jacksonville Center
Wed 04:13:36 PM 29.4556 -83.3528 316° Northwest 447 514 29,300 900 Climbing Jacksonville Center
Wed 04:14:36 PM 29.5472 -83.4536 316° Northwest 447 514 30,000 300 Climbing Jacksonville Center
Wed 04:15:36 PM 29.6386 -83.5519 317° Northwest 447 514 29,900  Descending Jacksonville Center
Wed 04:16:36 PM 29.7319 -83.6556 316° Northwest 452 520 30,000 50 Climbing Jacksonville Center
Wed 04:17:36 PM 29.8231 -83.7592 315° West 452 520 30,000 -50 Level Jacksonville Center
Wed 04:18:36 PM 29.9142 -83.8606 316° Northwest 452 520 29,900  Descending Jacksonville Center
Wed 04:19:36 PM 30.0053 -83.9622 316° Northwest 457 526 30,000 50 Climbing Jacksonville Center
Wed 04:20:36 PM 30.0983 -84.0667 316° Northwest 457 526 30,000  Level Jacksonville Center
Wed 04:21:36 PM 30.1892 -84.1686 316° Northwest 457 526 30,000  Level Jacksonville Center
Wed 04:22:36 PM 30.2903 -84.2806 316° Northwest 457 526 30,000 300 Level Jacksonville Center
Wed 04:23:36 PM 30.3536 -84.3994 302° West 452 520 30,600 500 Climbing Jacksonville Center
Wed 04:24:36 PM 30.4064 -84.5328 295° West 447 514 31,000 350 Climbing Jacksonville Center
Wed 04:25:36 PM 30.4567 -84.6589 295° West 441 507 31,300 950 Climbing Jacksonville Center
Wed 04:26:36 PM 30.5367 -84.7617 312° West 421 484 32,900 1,100 Climbing Jacksonville Center
Wed 04:27:36 PM 30.6231 -84.8575 316° Northwest 426 490 33,500 500 Climbing Jacksonville Center
Wed 04:28:36 PM 30.7072 -84.9536 316° Northwest 426 490 33,900 250 Climbing Jacksonville Center
Wed 04:29:36 PM 30.7953 -85.0547 315° West 426 490 34,000 50 Climbing Jacksonville Center
Wed 04:30:36 PM 30.8811 -85.1511 316° Northwest 431 496 34,000 -50 Level Jacksonville Center
Wed 04:31:36 PM 30.9692 -85.2475 317° Northwest 431 496 33,900  Descending Jacksonville Center
Wed 04:32:36 PM 31.0550 -85.3492 315° West 431 496 34,000 50 Climbing Jacksonville Center
Wed 04:33:36 PM 31.1428 -85.4436 317° Northwest 431 496 34,000  Level Jacksonville Center
Wed 04:34:36 PM 31.2394 -85.5264 324° Northwest 431 496 34,000  Level Jacksonville Center
Wed 04:35:36 PM 31.3236 -85.5872 328° Northwest 431 496 34,000  Level Jacksonville Center
Wed 04:36:36 PM 31.4325 -85.6731 326° Northwest 431 496 34,000  Level Jacksonville Center
Wed 04:38:56 PM 31.6872 -85.8594 328° Northwest 448 516 34,000  Level Atlanta Center
Wed 04:39:56 PM 31.7861 -85.9494 322° Northwest 448 516 34,000  Level Atlanta Center
Wed 04:40:56 PM 31.8517 -86.0292 314° West 435 501 34,000  Level Atlanta Center
Wed 04:41:56 PM 31.9519 -86.1464 315° West 426 490 34,000  Level Atlanta Center
Wed 04:42:56 PM 32.0358 -86.2511 313° West 426 490 34,000  Level Atlanta Center
Wed 04:43:56 PM 32.1111 -86.3439 314° West 431 496 34,000  Level Atlanta Center
Wed 04:44:56 PM 32.2094 -86.4544 316° Northwest 436 502 34,000  Level Atlanta Center
Wed 04:45:56 PM 32.2950 -86.5575 314° West 441 507 34,000  Level Atlanta Center
Wed 04:46:56 PM 32.3764 -86.6556 315° West 430 495 34,000  Level Atlanta Center
Wed 04:47:56 PM 32.4475 -86.7464 313° West 418 481 34,000  Level Atlanta Center
Wed 04:48:56 PM 32.5289 -86.8425 315° West 412 474 34,000  Level Atlanta Center
Wed 04:49:56 PM 32.6100 -86.9436 314° West 412 474 34,000  Level Atlanta Center
Wed 04:50:56 PM 32.6911 -87.0425 314° West 412 474 34,000  Level Atlanta Center
Wed 04:51:56 PM 32.7722 -87.1417 314° West 407 468 34,000  Level Atlanta Center
Wed 04:52:56 PM 32.8511 -87.2383 314° West 407 468 34,000  Level Atlanta Center
Wed 04:53:56 PM 32.9339 -87.3406 314° West 407 468 34,000  Level Atlanta Center
Wed 04:54:56 PM 33.0186 -87.4500 313° West 407 468 34,000  Level Atlanta Center
Wed 04:57:20 PM 33.2092 -87.6931 313° West 437 503 34,000  Level Memphis Center
Wed 04:58:20 PM 33.2906 -87.7925 314° West 432 497 34,000  Level Memphis Center
Wed 04:59:20 PM 33.3675 -87.8922 313° West 427 491 34,000  Level Memphis Center
Wed 05:00:20 PM 33.4447 -87.9922 313° West 416 479 34,000  Level Memphis Center
Wed 05:01:20 PM 33.5239 -88.0922 314° West 411 473 34,000  Level Memphis Center
Wed 05:02:20 PM 33.6006 -88.1900 313° West 411 473 34,000  Level Memphis Center
Wed 05:03:20 PM 33.6689 -88.2781 313° West 411 473 34,000  Level Memphis Center
Wed 05:04:20 PM 33.7478 -88.3761 314° West 411 473 34,000  Level Memphis Center
Wed 05:05:20 PM 33.8267 -88.4767 313° West 411 473 34,000  Level Memphis Center
Wed 05:06:20 PM 33.9053 -88.5778 313° West 411 473 34,000  Level Memphis Center
Wed 05:07:20 PM 33.9819 -88.6789 312° West 411 473 34,000  Level Memphis Center
Wed 05:08:20 PM 34.0481 -88.7878 306° West 411 473 34,000  Level Memphis Center
Wed 05:09:20 PM 34.1119 -88.9097 302° West 401 461 34,000  Level Memphis Center
Wed 05:10:20 PM 34.1719 -89.0292 301° West 406 467 34,000  Level Memphis Center
Wed 05:11:20 PM 34.2314 -89.1411 303° West 406 467 34,000  Level Memphis Center
Wed 05:12:20 PM 34.2931 -89.2561 303° West 406 467 34,000  Level Memphis Center
Wed 05:13:20 PM 34.3525 -89.3708 302° West 406 467 34,000  Level Memphis Center
Wed 05:14:20 PM 34.4139 -89.4861 303° West 411 473 34,000  Level Memphis Center
Wed 05:15:20 PM 34.4686 -89.5861 304° West 406 467 34,000  Level Memphis Center
Wed 05:16:20 PM 34.5444 -89.6839 313° West 406 467 34,000  Level Memphis Center
Wed 05:17:20 PM 34.6200 -89.7842 312° West 398 458 34,000  Level Memphis Center
Wed 05:18:20 PM 34.7039 -89.8975 312° West 403 464 34,000  Level Memphis Center
Wed 05:19:20 PM 34.7836 -90.0006 313° West 410 472 34,000  Level Memphis Center
Wed 05:20:20 PM 34.8589 -90.0964 314° West 405 466 34,000  Level Memphis Center
Wed 05:21:20 PM 34.9364 -90.1950 314° West 399 459 34,000  Level Memphis Center
Wed 05:22:20 PM 35.0156 -90.2989 313° West 405 466 34,000  Level Memphis Center
Wed 05:23:20 PM 35.0969 -90.4053 313° West 417 480 34,000  Level Memphis Center
Wed 05:24:20 PM 35.1681 -90.4992 313° West 417 480 34,000  Level Memphis Center
Wed 05:25:20 PM 35.2469 -90.6061 312° West 417 480 34,000  Level Memphis Center
Wed 05:26:20 PM 35.3239 -90.7108 312° West 417 480 34,000  Level Memphis Center
Wed 05:27:20 PM 35.4028 -90.8131 313° West 411 473 34,000  Level Memphis Center
Wed 05:28:20 PM 35.4775 -90.9153 312° West 411 473 34,000  Level Memphis Center
Wed 05:29:20 PM 35.5542 -91.0206 312° West 418 481 34,000  Level Memphis Center
Wed 05:30:20 PM 35.6392 -91.1311 313° West 411 473 34,000  Level Memphis Center
Wed 05:31:20 PM 35.7011 -91.2236 310° West 406 467 34,000  Level Memphis Center
Wed 05:32:20 PM 35.7775 -91.3267 312° West 406 467 34,000  Level Memphis Center
Wed 05:33:20 PM 35.8661 -91.4431 313° West 411 473 34,000 -250 Level Memphis Center
Wed 05:34:20 PM 35.9403 -91.5442 312° West 411 473 33,500 -700 Descending Memphis Center
Wed 05:35:20 PM 36.0061 -91.6400 310° West 406 467 32,600 -1,700 Descending Memphis Center
Wed 05:36:20 PM 36.0861 -91.7517 312° West 418 481 30,100 -2,000 Descending Memphis Center
Wed 05:37:20 PM 36.1642 -91.8636 311° West 423 487 28,600 -1,550 Descending Memphis Center
Wed 05:38:20 PM 36.2544 -91.9808 314° West 423 487 27,000 -1,550 Descending Memphis Center
Wed 05:39:20 PM 36.3322 -92.0881 312° West 423 487 25,500 -1,500 Descending Memphis Center
Wed 05:40:20 PM 36.4058 -92.1928 311° West 412 474 24,000 -750 Descending Memphis Center
Wed 05:41:20 PM 36.4792 -92.2953 312° West 406 467 24,000  Level Memphis Center
Wed 05:42:20 PM 36.5444 -92.3872 311° West 401 461 24,000  Level Memphis Center
Wed 05:43:20 PM 36.6200 -92.4925 312° West 401 461 24,000 -1,456 Level Memphis Center
Wed 05:44:36 PM 36.7206 -92.6336 312° West 400 460 20,700 -2,435 Descending Kansas City Center
Wed 05:45:38 PM 36.7972 -92.7417 312° West 408 470 18,400 -2,226 Descending Kansas City Center
Wed 05:46:40 PM 36.8683 -92.8469 310° West 404 465 16,100 -1,306 Descending Kansas City Center
Wed 05:47:42 PM 36.9325 -92.9411 310° West 386 444 15,700 -919 Descending Kansas City Center
Wed 05:48:44 PM 36.9964 -93.0108 319° Northwest 343 395 14,200 -1,839 Descending Kansas City Center
Wed 05:49:46 PM 37.0642 -93.0703 325° Northwest 311 358 11,900 -2,226 Descending Kansas City Center
Wed 05:50:48 PM 37.1308 -93.1311 324° Northwest 300 345 9,600 -2,448 Descending Kansas City Center
Wed 05:51:51 PM 37.2081 -93.2044 323° Northwest 294 338 6,800 -2,496 Descending Kansas City Center
Wed 05:52:53 PM 37.2703 -93.2678 321° Northwest 291 335 4,400 -1,355 Descending Kansas City Center
Wed 05:53:55 PM 37.3292 -93.3286 321° Northwest 285 328 4,000 -581 Descending Kansas City Center
Wed 05:54:57 PM 37.3411 -93.3911 284° West 249 287 3,200 -774 Descending Kansas City Center

Login

Don't have an account? Register now (free) for customized features, flight alerts, and more!